Greenbackville, Virginia
Current Conditions -  °F | °C
As of 7:14 AM on Monday 26 Jan 2015 (Local Time) from KWAL Reporting Station
Overcast Overcast  
Wind Chill: 33°   Ceiling: 2900
Heat Index: 41°   Visibility: 10mi
Dew Point: 38°   Wind: 16mph
Humidity: 89%   Direction: 60°ENE
Pressure: 29.78"   Gusts: NA
Location:  38.01°N, 75.39°W
Report Text: KWAL 261214Z AUTO 06014KT 10SM BKN029 BKN034 OVC100 05/03 A2978 RMK AO2 T00500033
Loading
Personal Weather Stations






























Interactive Weather Map New forecast layout! Learn more

10-Day Weather Forecast

Advertisements
Track Severe Weather on mobile